sensor_id;sensor_type;location;lat;lon;timestamp;P1;durP1;ratioP1;P2;durP2;ratioP2
8397;SDS011;4236;54.504;9.588;2023-02-04T00:00:19;136.83;;;131.93;;
8397;SDS011;4236;54.504;9.588;2023-02-04T00:02:48;142.53;;;137.43;;
8397;SDS011;4236;54.504;9.588;2023-02-04T00:05:17;146.33;;;141.17;;
8397;SDS011;4236;54.504;9.588;2023-02-04T00:07:46;151.53;;;146.07;;
8397;SDS011;4236;54.504;9.588;2023-02-04T00:10:14;155.07;;;149.67;;
8397;SDS011;4236;54.504;9.588;2023-02-04T00:12:42;157.63;;;151.93;;
8397;SDS011;4236;54.504;9.588;2023-02-04T00:15:09;154.57;;;149.00;;
8397;SDS011;4236;54.504;9.588;2023-02-04T00:17:37;164.73;;;159.00;;
8397;SDS011;4236;54.504;9.588;2023-02-04T00:20:05;171.03;;;165.13;;
8397;SDS011;4236;54.504;9.588;2023-02-04T00:22:33;173.90;;;167.90;;
8397;SDS011;4236;54.504;9.588;2023-02-04T00:25:03;177.43;;;171.43;;
8397;SDS011;4236;54.504;9.588;2023-02-04T00:27:30;183.40;;;177.30;;
8397;SDS011;4236;54.504;9.588;2023-02-04T00:29:58;190.30;;;183.90;;
8397;SDS011;4236;54.504;9.588;2023-02-04T00:32:26;187.20;;;180.80;;
8397;SDS011;4236;54.504;9.588;2023-02-04T00:34:53;190.53;;;184.03;;
8397;SDS011;4236;54.504;9.588;2023-02-04T00:37:21;195.00;;;188.40;;
8397;SDS011;4236;54.504;9.588;2023-02-04T00:39:49;194.33;;;187.03;;
8397;SDS011;4236;54.504;9.588;2023-02-04T00:42:18;190.67;;;184.00;;
8397;SDS011;4236;54.504;9.588;2023-02-04T00:44:46;204.27;;;197.53;;
8397;SDS011;4236;54.504;9.588;2023-02-04T00:47:13;198.53;;;191.73;;
8397;SDS011;4236;54.504;9.588;2023-02-04T00:49:41;193.67;;;187.07;;
8397;SDS011;4236;54.504;9.588;2023-02-04T00:52:09;194.67;;;187.73;;
8397;SDS011;4236;54.504;9.588;2023-02-04T00:54:36;184.23;;;178.03;;
8397;SDS011;4236;54.504;9.588;2023-02-04T00:57:04;190.03;;;183.63;;
8397;SDS011;4236;54.504;9.588;2023-02-04T00:59:33;195.87;;;189.07;;
8397;SDS011;4236;54.504;9.588;2023-02-04T01:02:01;202.70;;;195.90;;
8397;SDS011;4236;54.504;9.588;2023-02-04T01:04:29;210.00;;;203.10;;
8397;SDS011;4236;54.504;9.588;2023-02-04T01:06:57;214.03;;;207.03;;
8397;SDS011;4236;54.504;9.588;2023-02-04T01:09:24;228.23;;;220.93;;
8397;SDS011;4236;54.504;9.588;2023-02-04T01:11:52;232.23;;;224.87;;
8397;SDS011;4236;54.504;9.588;2023-02-04T01:14:20;245.23;;;237.53;;
8397;SDS011;4236;54.504;9.588;2023-02-04T01:16:49;246.80;;;238.43;;
8397;SDS011;4236;54.504;9.588;2023-02-04T01:19:16;246.77;;;238.40;;
8397;SDS011;4236;54.504;9.588;2023-02-04T01:21:46;253.83;;;245.83;;
8397;SDS011;4236;54.504;9.588;2023-02-04T01:24:14;257.20;;;249.00;;
8397;SDS011;4236;54.504;9.588;2023-02-04T01:26:41;266.47;;;258.03;;
8397;SDS011;4236;54.504;9.588;2023-02-04T01:29:09;269.10;;;260.50;;
8397;SDS011;4236;54.504;9.588;2023-02-04T01:31:37;268.43;;;259.87;;
8397;SDS011;4236;54.504;9.588;2023-02-04T01:34:06;267.30;;;258.20;;
8397;SDS011;4236;54.504;9.588;2023-02-04T01:36:34;267.03;;;258.53;;
8397;SDS011;4236;54.504;9.588;2023-02-04T01:39:02;268.67;;;260.17;;
8397;SDS011;4236;54.504;9.588;2023-02-04T01:41:29;263.40;;;255.00;;
8397;SDS011;4236;54.504;9.588;2023-02-04T01:43:57;269.17;;;260.67;;
8397;SDS011;4236;54.504;9.588;2023-02-04T01:46:25;273.97;;;264.97;;
8397;SDS011;4236;54.504;9.588;2023-02-04T01:48:53;269.73;;;261.13;;
8397;SDS011;4236;54.504;9.588;2023-02-04T01:51:23;269.70;;;261.00;;
8397;SDS011;4236;54.504;9.588;2023-02-04T01:53:54;268.37;;;259.67;;
8397;SDS011;4236;54.504;9.588;2023-02-04T01:56:23;272.97;;;264.30;;
8397;SDS011;4236;54.504;9.588;2023-02-04T01:58:52;255.47;;;247.37;;
8397;SDS011;4236;54.504;9.588;2023-02-04T02:01:34;241.03;;;233.13;;
8397;SDS011;4236;54.504;9.588;2023-02-04T02:04:04;237.70;;;230.10;;
8397;SDS011;4236;54.504;9.588;2023-02-04T02:06:33;244.60;;;236.90;;
8397;SDS011;4236;54.504;9.588;2023-02-04T02:09:02;241.63;;;233.93;;
8397;SDS011;4236;54.504;9.588;2023-02-04T02:11:30;236.30;;;227.67;;
8397;SDS011;4236;54.504;9.588;2023-02-04T02:13:59;242.93;;;235.13;;
8397;SDS011;4236;54.504;9.588;2023-02-04T02:16:27;245.10;;;237.00;;
8397;SDS011;4236;54.504;9.588;2023-02-04T02:18:56;247.67;;;239.73;;
8397;SDS011;4236;54.504;9.588;2023-02-04T02:21:32;259.27;;;250.80;;
8397;SDS011;4236;54.504;9.588;2023-02-04T02:26:54;245.87;;;237.93;;
8397;SDS011;4236;54.504;9.588;2023-02-04T02:29:23;254.63;;;246.33;;
8397;SDS011;4236;54.504;9.588;2023-02-04T02:31:52;249.90;;;241.80;;
8397;SDS011;4236;54.504;9.588;2023-02-04T02:34:22;256.03;;;247.93;;
8397;SDS011;4236;54.504;9.588;2023-02-04T02:36:51;264.57;;;256.13;;
8397;SDS011;4236;54.504;9.588;2023-02-04T02:39:18;263.27;;;254.67;;
8397;SDS011;4236;54.504;9.588;2023-02-04T02:41:48;280.00;;;271.00;;
8397;SDS011;4236;54.504;9.588;2023-02-04T02:44:16;281.23;;;272.13;;
8397;SDS011;4236;54.504;9.588;2023-02-04T02:46:45;288.57;;;279.10;;
8397;SDS011;4236;54.504;9.588;2023-02-04T02:49:13;300.03;;;289.90;;
8397;SDS011;4236;54.504;9.588;2023-02-04T02:51:44;289.83;;;280.53;;
8397;SDS011;4236;54.504;9.588;2023-02-04T02:54:15;291.73;;;282.23;;
8397;SDS011;4236;54.504;9.588;2023-02-04T02:56:49;295.33;;;285.73;;
8397;SDS011;4236;54.504;9.588;2023-02-04T02:59:16;306.13;;;296.13;;
8397;SDS011;4236;54.504;9.588;2023-02-04T03:01:44;304.70;;;294.57;;
8397;SDS011;4236;54.504;9.588;2023-02-04T03:04:15;310.63;;;300.23;;
8397;SDS011;4236;54.504;9.588;2023-02-04T03:06:45;318.97;;;308.37;;
8397;SDS011;4236;54.504;9.588;2023-02-04T03:09:13;325.90;;;314.93;;
8397;SDS011;4236;54.504;9.588;2023-02-04T03:11:41;336.30;;;325.23;;
8397;SDS011;4236;54.504;9.588;2023-02-04T03:14:10;336.77;;;325.70;;
8397;SDS011;4236;54.504;9.588;2023-02-04T03:16:38;332.73;;;321.53;;
8397;SDS011;4236;54.504;9.588;2023-02-04T03:19:06;344.43;;;332.90;;
8397;SDS011;4236;54.504;9.588;2023-02-04T03:21:34;340.63;;;329.03;;
8397;SDS011;4236;54.504;9.588;2023-02-04T03:24:03;345.57;;;334.07;;
8397;SDS011;4236;54.504;9.588;2023-02-04T03:26:31;347.67;;;336.30;;
8397;SDS011;4236;54.504;9.588;2023-02-04T03:28:59;355.47;;;343.60;;
8397;SDS011;4236;54.504;9.588;2023-02-04T03:31:28;344.50;;;333.03;;
8397;SDS011;4236;54.504;9.588;2023-02-04T03:33:56;337.40;;;326.20;;
8397;SDS011;4236;54.504;9.588;2023-02-04T03:36:24;339.23;;;327.93;;
8397;SDS011;4236;54.504;9.588;2023-02-04T03:38:51;338.40;;;327.10;;
8397;SDS011;4236;54.504;9.588;2023-02-04T03:41:19;338.87;;;327.33;;
8397;SDS011;4236;54.504;9.588;2023-02-04T03:43:47;358.10;;;346.20;;
8397;SDS011;4236;54.504;9.588;2023-02-04T03:46:15;355.63;;;343.83;;
8397;SDS011;4236;54.504;9.588;2023-02-04T03:48:44;355.30;;;343.20;;
8397;SDS011;4236;54.504;9.588;2023-02-04T03:51:11;365.83;;;353.70;;
8397;SDS011;4236;54.504;9.588;2023-02-04T03:53:39;355.03;;;342.93;;
8397;SDS011;4236;54.504;9.588;2023-02-04T03:56:07;359.03;;;347.00;;
8397;SDS011;4236;54.504;9.588;2023-02-04T03:58:35;358.40;;;346.60;;
8397;SDS011;4236;54.504;9.588;2023-02-04T04:01:03;350.70;;;338.90;;
8397;SDS011;4236;54.504;9.588;2023-02-04T04:03:31;352.20;;;340.40;;
8397;SDS011;4236;54.504;9.588;2023-02-04T04:06:00;355.33;;;343.10;;
8397;SDS011;4236;54.504;9.588;2023-02-04T04:08:30;359.20;;;347.10;;
8397;SDS011;4236;54.504;9.588;2023-02-04T04:10:58;363.20;;;350.93;;
8397;SDS011;4236;54.504;9.588;2023-02-04T04:13:25;367.60;;;355.10;;
8397;SDS011;4236;54.504;9.588;2023-02-04T04:15:53;377.47;;;364.30;;
8397;SDS011;4236;54.504;9.588;2023-02-04T04:18:21;378.90;;;365.90;;
8397;SDS011;4236;54.504;9.588;2023-02-04T04:20:48;391.87;;;378.20;;
8397;SDS011;4236;54.504;9.588;2023-02-04T04:23:17;399.30;;;385.13;;
8397;SDS011;4236;54.504;9.588;2023-02-04T04:25:45;397.17;;;383.20;;
8397;SDS011;4236;54.504;9.588;2023-02-04T04:28:13;392.23;;;378.43;;
8397;SDS011;4236;54.504;9.588;2023-02-04T04:30:40;403.17;;;388.60;;
8397;SDS011;4236;54.504;9.588;2023-02-04T04:33:08;391.47;;;376.30;;
8397;SDS011;4236;54.504;9.588;2023-02-04T04:35:36;412.23;;;397.07;;
8397;SDS011;4236;54.504;9.588;2023-02-04T04:38:04;392.57;;;378.30;;
8397;SDS011;4236;54.504;9.588;2023-02-04T04:40:33;390.17;;;375.97;;
8397;SDS011;4236;54.504;9.588;2023-02-04T04:43:01;394.80;;;380.50;;
8397;SDS011;4236;54.504;9.588;2023-02-04T04:45:28;398.13;;;383.50;;
8397;SDS011;4236;54.504;9.588;2023-02-04T04:47:56;403.63;;;388.70;;
8397;SDS011;4236;54.504;9.588;2023-02-04T04:50:24;391.07;;;376.97;;
8397;SDS011;4236;54.504;9.588;2023-02-04T04:52:52;406.13;;;391.53;;
8397;SDS011;4236;54.504;9.588;2023-02-04T04:55:19;415.87;;;401.03;;
8397;SDS011;4236;54.504;9.588;2023-02-04T04:57:48;428.40;;;412.80;;
8397;SDS011;4236;54.504;9.588;2023-02-04T05:00:18;419.50;;;404.50;;
8397;SDS011;4236;54.504;9.588;2023-02-04T05:02:47;432.90;;;417.13;;
8397;SDS011;4236;54.504;9.588;2023-02-04T05:05:15;425.23;;;409.73;;
8397;SDS011;4236;54.504;9.588;2023-02-04T05:07:42;426.40;;;410.73;;
8397;SDS011;4236;54.504;9.588;2023-02-04T05:10:10;423.37;;;407.23;;
8397;SDS011;4236;54.504;9.588;2023-02-04T05:12:38;423.90;;;408.37;;
8397;SDS011;4236;54.504;9.588;2023-02-04T05:15:07;420.87;;;405.67;;
8397;SDS011;4236;54.504;9.588;2023-02-04T05:17:35;424.70;;;409.40;;
8397;SDS011;4236;54.504;9.588;2023-02-04T05:20:03;416.67;;;401.20;;
8397;SDS011;4236;54.504;9.588;2023-02-04T05:22:31;431.30;;;415.30;;
8397;SDS011;4236;54.504;9.588;2023-02-04T05:24:59;425.93;;;410.13;;
8397;SDS011;4236;54.504;9.588;2023-02-04T05:27:27;425.50;;;409.20;;
8397;SDS011;4236;54.504;9.588;2023-02-04T05:29:55;421.67;;;406.00;;
8397;SDS011;4236;54.504;9.588;2023-02-04T05:32:24;414.37;;;399.37;;
8397;SDS011;4236;54.504;9.588;2023-02-04T05:34:51;412.97;;;397.73;;
8397;SDS011;4236;54.504;9.588;2023-02-04T05:37:19;421.30;;;405.70;;
8397;SDS011;4236;54.504;9.588;2023-02-04T05:39:47;414.30;;;399.10;;
8397;SDS011;4236;54.504;9.588;2023-02-04T05:42:14;413.57;;;398.37;;
8397;SDS011;4236;54.504;9.588;2023-02-04T05:44:42;432.90;;;415.80;;
8397;SDS011;4236;54.504;9.588;2023-02-04T05:47:10;418.47;;;401.30;;
8397;SDS011;4236;54.504;9.588;2023-02-04T05:49:39;434.47;;;415.37;;
8397;SDS011;4236;54.504;9.588;2023-02-04T05:52:06;426.07;;;409.03;;
8397;SDS011;4236;54.504;9.588;2023-02-04T05:54:34;424.30;;;407.90;;
8397;SDS011;4236;54.504;9.588;2023-02-04T05:57:02;430.93;;;414.27;;
8397;SDS011;4236;54.504;9.588;2023-02-04T05:59:30;424.30;;;408.40;;
8397;SDS011;4236;54.504;9.588;2023-02-04T06:01:58;416.03;;;399.67;;
8397;SDS011;4236;54.504;9.588;2023-02-04T06:04:25;420.67;;;404.70;;
8397;SDS011;4236;54.504;9.588;2023-02-04T06:06:55;421.60;;;405.57;;
8397;SDS011;4236;54.504;9.588;2023-02-04T06:09:22;427.90;;;411.40;;
8397;SDS011;4236;54.504;9.588;2023-02-04T06:11:50;414.03;;;398.13;;
8397;SDS011;4236;54.504;9.588;2023-02-04T06:14:17;433.93;;;416.93;;
8397;SDS011;4236;54.504;9.588;2023-02-04T06:16:45;424.30;;;408.10;;
8397;SDS011;4236;54.504;9.588;2023-02-04T06:19:13;427.17;;;410.87;;
8397;SDS011;4236;54.504;9.588;2023-02-04T06:21:41;422.80;;;407.10;;
8397;SDS011;4236;54.504;9.588;2023-02-04T06:24:10;419.67;;;403.73;;
8397;SDS011;4236;54.504;9.588;2023-02-04T06:26:38;428.00;;;411.97;;
8397;SDS011;4236;54.504;9.588;2023-02-04T06:29:05;423.87;;;408.13;;
8397;SDS011;4236;54.504;9.588;2023-02-04T06:31:33;424.73;;;408.20;;
8397;SDS011;4236;54.504;9.588;2023-02-04T06:34:03;421.50;;;405.77;;
8397;SDS011;4236;54.504;9.588;2023-02-04T06:36:32;410.63;;;395.20;;
8397;SDS011;4236;54.504;9.588;2023-02-04T06:38:59;409.97;;;394.97;;
8397;SDS011;4236;54.504;9.588;2023-02-04T06:41:28;413.70;;;397.73;;
8397;SDS011;4236;54.504;9.588;2023-02-04T06:43:56;408.43;;;392.87;;
8397;SDS011;4236;54.504;9.588;2023-02-04T06:46:24;407.83;;;392.63;;
8397;SDS011;4236;54.504;9.588;2023-02-04T06:48:51;411.90;;;396.17;;
8397;SDS011;4236;54.504;9.588;2023-02-04T06:51:19;417.20;;;401.13;;
8397;SDS011;4236;54.504;9.588;2023-02-04T06:53:47;407.30;;;392.17;;
8397;SDS011;4236;54.504;9.588;2023-02-04T06:56:15;403.07;;;388.17;;
8397;SDS011;4236;54.504;9.588;2023-02-04T06:58:44;409.07;;;394.00;;
8397;SDS011;4236;54.504;9.588;2023-02-04T07:01:11;416.50;;;401.30;;
8397;SDS011;4236;54.504;9.588;2023-02-04T07:03:39;419.83;;;404.13;;
8397;SDS011;4236;54.504;9.588;2023-02-04T07:06:07;416.23;;;400.60;;
8397;SDS011;4236;54.504;9.588;2023-02-04T07:08:35;428.60;;;412.97;;
8397;SDS011;4236;54.504;9.588;2023-02-04T07:11:02;410.83;;;395.53;;
8397;SDS011;4236;54.504;9.588;2023-02-04T07:13:30;404.10;;;389.50;;
8397;SDS011;4236;54.504;9.588;2023-02-04T07:15:59;398.60;;;384.20;;
8397;SDS011;4236;54.504;9.588;2023-02-04T07:18:27;410.80;;;395.47;;
8397;SDS011;4236;54.504;9.588;2023-02-04T07:20:54;407.70;;;392.80;;
8397;SDS011;4236;54.504;9.588;2023-02-04T07:23:22;417.50;;;402.60;;
8397;SDS011;4236;54.504;9.588;2023-02-04T07:25:50;415.27;;;400.03;;
8397;SDS011;4236;54.504;9.588;2023-02-04T07:28:19;415.90;;;400.30;;
8397;SDS011;4236;54.504;9.588;2023-02-04T07:30:46;414.17;;;399.17;;
8397;SDS011;4236;54.504;9.588;2023-02-04T07:33:16;414.33;;;399.47;;
8397;SDS011;4236;54.504;9.588;2023-02-04T07:35:43;404.80;;;390.43;;
8397;SDS011;4236;54.504;9.588;2023-02-04T07:38:11;412.90;;;398.10;;
8397;SDS011;4236;54.504;9.588;2023-02-04T07:40:39;421.03;;;405.83;;
8397;SDS011;4236;54.504;9.588;2023-02-04T07:43:06;412.53;;;397.73;;
8397;SDS011;4236;54.504;9.588;2023-02-04T07:45:34;416.27;;;401.33;;
8397;SDS011;4236;54.504;9.588;2023-02-04T07:48:02;406.77;;;392.20;;
8397;SDS011;4236;54.504;9.588;2023-02-04T07:50:31;418.10;;;403.10;;
8397;SDS011;4236;54.504;9.588;2023-02-04T07:53:00;421.20;;;406.03;;
8397;SDS011;4236;54.504;9.588;2023-02-04T07:55:28;418.47;;;403.30;;
8397;SDS011;4236;54.504;9.588;2023-02-04T07:57:55;409.10;;;394.30;;
8397;SDS011;4236;54.504;9.588;2023-02-04T08:00:23;414.27;;;399.20;;
8397;SDS011;4236;54.504;9.588;2023-02-04T08:02:51;414.00;;;399.00;;
8397;SDS011;4236;54.504;9.588;2023-02-04T08:05:19;416.50;;;401.40;;
8397;SDS011;4236;54.504;9.588;2023-02-04T08:07:48;418.40;;;403.13;;
8397;SDS011;4236;54.504;9.588;2023-02-04T08:10:15;417.87;;;402.57;;
8397;SDS011;4236;54.504;9.588;2023-02-04T08:12:43;422.10;;;406.93;;
8397;SDS011;4236;54.504;9.588;2023-02-04T08:15:11;416.93;;;402.13;;
8397;SDS011;4236;54.504;9.588;2023-02-04T08:17:39;416.87;;;402.20;;
8397;SDS011;4236;54.504;9.588;2023-02-04T08:20:07;404.10;;;389.90;;
8397;SDS011;4236;54.504;9.588;2023-02-04T08:22:38;416.37;;;401.83;;
8397;SDS011;4236;54.504;9.588;2023-02-04T08:25:08;417.53;;;403.03;;
8397;SDS011;4236;54.504;9.588;2023-02-04T08:27:36;399.97;;;385.83;;
8397;SDS011;4236;54.504;9.588;2023-02-04T08:30:05;402.33;;;388.33;;
8397;SDS011;4236;54.504;9.588;2023-02-04T08:32:33;381.97;;;368.63;;
8397;SDS011;4236;54.504;9.588;2023-02-04T08:35:01;382.77;;;369.03;;
8397;SDS011;4236;54.504;9.588;2023-02-04T08:37:31;381.17;;;367.87;;
8397;SDS011;4236;54.504;9.588;2023-02-04T08:39:59;369.67;;;356.23;;
8397;SDS011;4236;54.504;9.588;2023-02-04T08:42:28;369.83;;;357.23;;
8397;SDS011;4236;54.504;9.588;2023-02-04T08:44:56;364.60;;;351.80;;
8397;SDS011;4236;54.504;9.588;2023-02-04T08:47:23;351.27;;;339.10;;
8397;SDS011;4236;54.504;9.588;2023-02-04T08:49:51;357.47;;;345.30;;
8397;SDS011;4236;54.504;9.588;2023-02-04T08:52:19;367.33;;;353.83;;
8397;SDS011;4236;54.504;9.588;2023-02-04T08:54:46;358.17;;;346.10;;
8397;SDS011;4236;54.504;9.588;2023-02-04T08:57:14;334.50;;;323.10;;
8397;SDS011;4236;54.504;9.588;2023-02-04T08:59:43;318.80;;;308.00;;
8397;SDS011;4236;54.504;9.588;2023-02-04T09:02:11;294.20;;;284.27;;
8397;SDS011;4236;54.504;9.588;2023-02-04T09:04:39;297.23;;;287.30;;
8397;SDS011;4236;54.504;9.588;2023-02-04T09:07:06;281.57;;;271.97;;
8397;SDS011;4236;54.504;9.588;2023-02-04T09:09:34;273.03;;;263.83;;
8397;SDS011;4236;54.504;9.588;2023-02-04T09:12:01;272.70;;;263.00;;
8397;SDS011;4236;54.504;9.588;2023-02-04T09:14:29;245.73;;;237.20;;
8397;SDS011;4236;54.504;9.588;2023-02-04T09:16:58;240.80;;;232.27;;
8397;SDS011;4236;54.504;9.588;2023-02-04T09:19:26;233.97;;;225.77;;
8397;SDS011;4236;54.504;9.588;2023-02-04T09:21:54;234.43;;;226.33;;
8397;SDS011;4236;54.504;9.588;2023-02-04T09:24:21;223.60;;;215.70;;
8397;SDS011;4236;54.504;9.588;2023-02-04T09:26:49;206.70;;;199.40;;
8397;SDS011;4236;54.504;9.588;2023-02-04T09:29:17;199.03;;;191.83;;
8397;SDS011;4236;54.504;9.588;2023-02-04T09:31:45;187.77;;;180.80;;
8397;SDS011;4236;54.504;9.588;2023-02-04T09:34:14;187.50;;;180.20;;
8397;SDS011;4236;54.504;9.588;2023-02-04T09:36:41;183.40;;;176.60;;
8397;SDS011;4236;54.504;9.588;2023-02-04T09:39:09;176.33;;;169.50;;
8397;SDS011;4236;54.504;9.588;2023-02-04T09:41:37;167.13;;;160.80;;
8397;SDS011;4236;54.504;9.588;2023-02-04T09:44:08;156.17;;;150.23;;
8397;SDS011;4236;54.504;9.588;2023-02-04T09:46:39;156.07;;;150.03;;
8397;SDS011;4236;54.504;9.588;2023-02-04T09:49:11;156.20;;;150.30;;
8397;SDS011;4236;54.504;9.588;2023-02-04T09:51:40;158.97;;;153.00;;
8397;SDS011;4236;54.504;9.588;2023-02-04T09:54:11;158.20;;;152.10;;
8397;SDS011;4236;54.504;9.588;2023-02-04T09:56:40;154.20;;;148.13;;
8397;SDS011;4236;54.504;9.588;2023-02-04T09:59:09;153.67;;;147.60;;
8397;SDS011;4236;54.504;9.588;2023-02-04T10:01:39;152.83;;;146.90;;
8397;SDS011;4236;54.504;9.588;2023-02-04T10:04:07;146.77;;;141.07;;
8397;SDS011;4236;54.504;9.588;2023-02-04T10:06:39;142.70;;;137.00;;
8397;SDS011;4236;54.504;9.588;2023-02-04T10:09:09;142.90;;;137.40;;
8397;SDS011;4236;54.504;9.588;2023-02-04T10:11:38;139.30;;;133.90;;
8397;SDS011;4236;54.504;9.588;2023-02-04T10:14:09;140.17;;;134.73;;
8397;SDS011;4236;54.504;9.588;2023-02-04T10:16:41;135.63;;;130.53;;
8397;SDS011;4236;54.504;9.588;2023-02-04T10:19:12;135.57;;;130.27;;
8397;SDS011;4236;54.504;9.588;2023-02-04T10:21:43;122.07;;;117.40;;
8397;SDS011;4236;54.504;9.588;2023-02-04T10:24:12;121.57;;;117.13;;
8397;SDS011;4236;54.504;9.588;2023-02-04T10:26:42;123.37;;;118.77;;
8397;SDS011;4236;54.504;9.588;2023-02-04T10:29:13;114.23;;;109.63;;
8397;SDS011;4236;54.504;9.588;2023-02-04T10:31:43;118.87;;;114.47;;
8397;SDS011;4236;54.504;9.588;2023-02-04T10:34:13;110.10;;;106.00;;
8397;SDS011;4236;54.504;9.588;2023-02-04T10:36:46;107.67;;;103.67;;
8397;SDS011;4236;54.504;9.588;2023-02-04T10:39:16;105.03;;;101.03;;
8397;SDS011;4236;54.504;9.588;2023-02-04T10:41:48;101.33;;;97.53;;
8397;SDS011;4236;54.504;9.588;2023-02-04T10:44:18;101.00;;;97.30;;
8397;SDS011;4236;54.504;9.588;2023-02-04T10:46:48;88.87;;;85.73;;
8397;SDS011;4236;54.504;9.588;2023-02-04T10:49:19;76.33;;;73.43;;
8397;SDS011;4236;54.504;9.588;2023-02-04T10:51:50;69.57;;;66.97;;
8397;SDS011;4236;54.504;9.588;2023-02-04T10:54:19;60.23;;;58.03;;
8397;SDS011;4236;54.504;9.588;2023-02-04T10:56:57;55.17;;;53.17;;
8397;SDS011;4236;54.504;9.588;2023-02-04T10:59:26;54.07;;;51.97;;
8397;SDS011;4236;54.504;9.588;2023-02-04T11:01:54;55.40;;;53.20;;
8397;SDS011;4236;54.504;9.588;2023-02-04T11:04:24;53.10;;;51.10;;
8397;SDS011;4236;54.504;9.588;2023-02-04T11:06:55;56.67;;;54.57;;
8397;SDS011;4236;54.504;9.588;2023-02-04T11:09:24;59.10;;;56.17;;
8397;SDS011;4236;54.504;9.588;2023-02-04T11:11:51;55.93;;;53.43;;
8397;SDS011;4236;54.504;9.588;2023-02-04T11:14:24;62.07;;;59.17;;
8397;SDS011;4236;54.504;9.588;2023-02-04T11:16:53;51.43;;;49.53;;
8397;SDS011;4236;54.504;9.588;2023-02-04T11:19:32;50.10;;;48.30;;
8397;SDS011;4236;54.504;9.588;2023-02-04T11:22:07;48.77;;;46.90;;
8397;SDS011;4236;54.504;9.588;2023-02-04T11:24:49;46.33;;;44.63;;
8397;SDS011;4236;54.504;9.588;2023-02-04T11:27:19;49.93;;;48.13;;
8397;SDS011;4236;54.504;9.588;2023-02-04T11:29:49;50.60;;;48.50;;
8397;SDS011;4236;54.504;9.588;2023-02-04T11:32:28;52.17;;;50.37;;
8397;SDS011;4236;54.504;9.588;2023-02-04T11:35:19;49.93;;;48.03;;
8397;SDS011;4236;54.504;9.588;2023-02-04T11:37:54;51.77;;;49.80;;
8397;SDS011;4236;54.504;9.588;2023-02-04T11:40:23;51.67;;;49.67;;
8397;SDS011;4236;54.504;9.588;2023-02-04T11:42:57;52.50;;;50.50;;
8397;SDS011;4236;54.504;9.588;2023-02-04T11:45:28;50.00;;;48.20;;
8397;SDS011;4236;54.504;9.588;2023-02-04T11:47:58;51.53;;;49.53;;
8397;SDS011;4236;54.504;9.588;2023-02-04T11:50:29;52.63;;;50.73;;
8397;SDS011;4236;54.504;9.588;2023-02-04T11:52:59;54.17;;;52.17;;
8397;SDS011;4236;54.504;9.588;2023-02-04T11:55:28;49.43;;;47.63;;
8397;SDS011;4236;54.504;9.588;2023-02-04T11:57:58;52.50;;;50.70;;
8397;SDS011;4236;54.504;9.588;2023-02-04T12:00:28;49.63;;;47.73;;
8397;SDS011;4236;54.504;9.588;2023-02-04T12:02:57;51.50;;;49.60;;
8397;SDS011;4236;54.504;9.588;2023-02-04T12:05:37;49.67;;;47.77;;
8397;SDS011;4236;54.504;9.588;2023-02-04T12:08:13;49.40;;;47.60;;
8397;SDS011;4236;54.504;9.588;2023-02-04T12:10:58;51.00;;;49.10;;
8397;SDS011;4236;54.504;9.588;2023-02-04T12:13:28;49.93;;;48.13;;
8397;SDS011;4236;54.504;9.588;2023-02-04T12:16:00;44.40;;;42.70;;
8397;SDS011;4236;54.504;9.588;2023-02-04T12:18:30;46.87;;;45.07;;
8397;SDS011;4236;54.504;9.588;2023-02-04T12:20:59;46.47;;;44.70;;
8397;SDS011;4236;54.504;9.588;2023-02-04T12:23:29;45.47;;;43.77;;
8397;SDS011;4236;54.504;9.588;2023-02-04T12:25:57;44.13;;;42.63;;
8397;SDS011;4236;54.504;9.588;2023-02-04T12:28:25;42.87;;;41.27;;
8397;SDS011;4236;54.504;9.588;2023-02-04T12:30:54;40.17;;;38.67;;
8397;SDS011;4236;54.504;9.588;2023-02-04T12:33:22;41.93;;;40.43;;
8397;SDS011;4236;54.504;9.588;2023-02-04T12:35:50;43.30;;;41.60;;
8397;SDS011;4236;54.504;9.588;2023-02-04T12:38:18;42.70;;;41.00;;
8397;SDS011;4236;54.504;9.588;2023-02-04T12:40:47;46.23;;;44.43;;
8397;SDS011;4236;54.504;9.588;2023-02-04T12:43:15;44.83;;;43.13;;
8397;SDS011;4236;54.504;9.588;2023-02-04T12:45:43;42.23;;;40.50;;
8397;SDS011;4236;54.504;9.588;2023-02-04T12:48:14;44.50;;;42.63;;
8397;SDS011;4236;54.504;9.588;2023-02-04T12:50:42;42.37;;;40.67;;
8397;SDS011;4236;54.504;9.588;2023-02-04T12:53:10;39.03;;;37.33;;
8397;SDS011;4236;54.504;9.588;2023-02-04T12:55:37;42.63;;;40.70;;
8397;SDS011;4236;54.504;9.588;2023-02-04T12:58:06;42.90;;;41.20;;
8397;SDS011;4236;54.504;9.588;2023-02-04T13:00:34;40.47;;;39.07;;
8397;SDS011;4236;54.504;9.588;2023-02-04T13:03:02;39.17;;;37.77;;
8397;SDS011;4236;54.504;9.588;2023-02-04T13:05:30;39.43;;;37.53;;
8397;SDS011;4236;54.504;9.588;2023-02-04T13:07:58;38.23;;;36.90;;
8397;SDS011;4236;54.504;9.588;2023-02-04T13:10:26;36.37;;;35.07;;
8397;SDS011;4236;54.504;9.588;2023-02-04T13:12:54;35.90;;;34.60;;
8397;SDS011;4236;54.504;9.588;2023-02-04T13:15:23;37.47;;;36.17;;
8397;SDS011;4236;54.504;9.588;2023-02-04T13:17:50;38.13;;;36.80;;
8397;SDS011;4236;54.504;9.588;2023-02-04T13:20:18;35.47;;;34.17;;
8397;SDS011;4236;54.504;9.588;2023-02-04T13:22:46;36.90;;;35.60;;
8397;SDS011;4236;54.504;9.588;2023-02-04T13:25:14;36.53;;;35.20;;
8397;SDS011;4236;54.504;9.588;2023-02-04T13:27:42;35.17;;;33.90;;
8397;SDS011;4236;54.504;9.588;2023-02-04T13:30:10;35.07;;;33.77;;
8397;SDS011;4236;54.504;9.588;2023-02-04T13:32:41;38.00;;;36.63;;
8397;SDS011;4236;54.504;9.588;2023-02-04T13:35:09;36.83;;;35.60;;
8397;SDS011;4236;54.504;9.588;2023-02-04T13:37:36;36.83;;;35.60;;
8397;SDS011;4236;54.504;9.588;2023-02-04T13:40:04;36.53;;;35.23;;
8397;SDS011;4236;54.504;9.588;2023-02-04T13:42:33;36.87;;;35.67;;
8397;SDS011;4236;54.504;9.588;2023-02-04T13:45:00;35.90;;;34.70;;
8397;SDS011;4236;54.504;9.588;2023-02-04T13:47:28;38.43;;;37.03;;
8397;SDS011;4236;54.504;9.588;2023-02-04T13:49:57;36.47;;;35.07;;
8397;SDS011;4236;54.504;9.588;2023-02-04T13:52:25;37.20;;;35.67;;
8397;SDS011;4236;54.504;9.588;2023-02-04T13:54:53;37.00;;;35.80;;
8397;SDS011;4236;54.504;9.588;2023-02-04T13:57:21;36.77;;;35.33;;
8397;SDS011;4236;54.504;9.588;2023-02-04T13:59:49;37.13;;;35.83;;
8397;SDS011;4236;54.504;9.588;2023-02-04T14:02:17;36.50;;;35.20;;
8397;SDS011;4236;54.504;9.588;2023-02-04T14:04:46;36.27;;;35.07;;
8397;SDS011;4236;54.504;9.588;2023-02-04T14:07:15;37.13;;;35.73;;
8397;SDS011;4236;54.504;9.588;2023-02-04T14:09:43;36.60;;;35.10;;
8397;SDS011;4236;54.504;9.588;2023-02-04T14:12:13;34.77;;;33.47;;
8397;SDS011;4236;54.504;9.588;2023-02-04T14:14:41;38.40;;;36.80;;
8397;SDS011;4236;54.504;9.588;2023-02-04T14:17:09;35.90;;;34.60;;
8397;SDS011;4236;54.504;9.588;2023-02-04T14:19:37;35.63;;;34.43;;
8397;SDS011;4236;54.504;9.588;2023-02-04T14:22:04;36.63;;;35.33;;
8397;SDS011;4236;54.504;9.588;2023-02-04T14:24:34;38.23;;;36.60;;
8397;SDS011;4236;54.504;9.588;2023-02-04T14:27:01;38.00;;;36.50;;
8397;SDS011;4236;54.504;9.588;2023-02-04T14:29:32;41.93;;;40.43;;
8397;SDS011;4236;54.504;9.588;2023-02-04T14:32:00;40.97;;;39.40;;
8397;SDS011;4236;54.504;9.588;2023-02-04T14:34:28;41.87;;;40.13;;
8397;SDS011;4236;54.504;9.588;2023-02-04T14:36:56;43.10;;;41.50;;
8397;SDS011;4236;54.504;9.588;2023-02-04T14:39:24;42.40;;;40.80;;